Time;durP1;ratioP1;P1;durP2;ratioP2;P2;SDS_P1;SDS_P2;PMS_P1;PMS_P2;Temp;Humidity;BMP_temperature;BMP_pressure;BME280_temperature;BME280_humidity;BME280_pressure;Samples;Min_cycle;Max_cycle;Signal;HPM_P1;HPM_P2
2022/09/24 00:01:20;;;;;;;5.15;2.83;;;14.00;99.90;;;14.24;100.00;100742.56;5187691;28;20050;-84
2022/09/24 00:03:55;;;;;;;8.32;3.13;;;14.00;99.90;;;14.25;100.00;100737.34;5205043;28;20046;-83
2022/09/24 00:06:30;;;;;;;4.53;2.90;;;14.00;99.90;;;14.29;100.00;100743.56;5187499;28;20076;-84
2022/09/24 00:09:02;;;;;;;6.25;3.15;;;14.00;99.90;;;14.33;100.00;100743.63;5187186;28;20061;-84
2022/09/24 00:11:37;;;;;;;5.82;3.10;;;14.10;99.90;;;14.36;100.00;100745.44;5155329;28;20053;-83
2022/09/24 00:14:09;;;;;;;4.88;3.15;;;14.10;99.90;;;14.40;100.00;100750.72;5227302;22;20036;-71
2022/09/24 00:16:42;;;;;;;4.95;2.92;;;14.10;99.90;;;14.42;100.00;100745.53;5175859;28;20053;-70
2022/09/24 00:19:15;;;;;;;6.53;3.55;;;14.20;99.90;;;14.44;100.00;100737.69;5176034;28;20037;-70
2022/09/24 00:21:48;;;;;;;6.40;3.70;;;14.20;99.90;;;14.43;100.00;100730.69;5184675;28;20048;-71
2022/09/24 00:27:11;;;;;;;6.15;3.70;;;14.20;99.90;;;14.37;100.00;100734.97;5185162;28;20050;-73
2022/09/24 00:29:44;;;;;;;6.80;3.72;;;14.20;99.90;;;14.31;100.00;100721.72;5184016;28;20379;-72
2022/09/24 00:32:16;;;;;;;6.80;3.60;;;14.20;99.90;;;14.31;100.00;100726.97;5167628;28;20502;-71
2022/09/24 00:34:52;;;;;;;5.65;3.53;;;14.10;99.90;;;14.32;100.00;100733.09;5185050;28;20046;-71
2022/09/24 00:37:24;;;;;;;5.32;3.65;;;14.10;99.90;;;14.31;100.00;100728.72;5167639;28;20524;-70
2022/09/24 00:39:56;;;;;;;6.68;3.30;;;14.10;99.90;;;14.29;100.00;100726.06;5185064;28;20498;-71
2022/09/24 00:42:31;;;;;;;6.63;3.17;;;14.10;99.90;;;14.29;100.00;100722.56;5167630;28;20058;-71
2022/09/24 00:45:04;;;;;;;5.57;3.65;;;14.10;99.90;;;14.28;100.00;100726.94;5185242;28;20049;-73
2022/09/24 00:47:40;;;;;;;7.35;4.22;;;14.10;99.90;;;14.25;100.00;100721.63;5185394;28;20391;-71
2022/09/24 00:50:19;;;;;;;5.45;3.55;;;14.10;99.90;;;14.23;100.00;100720.72;5167401;28;20060;-72
2022/09/24 00:52:57;;;;;;;8.15;4.00;;;14.10;99.90;;;14.20;100.00;100718.03;5185413;28;20050;-73
2022/09/24 00:55:30;;;;;;;6.47;3.80;;;14.00;99.90;;;14.14;100.00;100712.66;5185348;28;20045;-72
2022/09/24 00:58:07;;;;;;;7.55;4.38;;;14.00;99.90;;;14.12;100.00;100714.38;5185442;28;20537;-71
2022/09/24 01:00:43;;;;;;;5.93;3.85;;;14.00;99.90;;;14.10;100.00;100710.84;5167768;28;20073;-73
2022/09/24 01:03:20;;;;;;;7.47;3.58;;;14.00;99.90;;;14.09;100.00;100709.09;5184710;28;20054;-70
2022/09/24 01:05:52;;;;;;;4.90;3.20;;;14.00;99.90;;;14.08;100.00;100709.91;5167713;28;20510;-72
2022/09/24 01:08:24;;;;;;;6.82;3.50;;;13.90;99.90;;;14.04;100.00;100715.97;5183750;28;20117;-71
2022/09/24 01:11:21;;;;;;;4.70;2.97;;;13.90;99.90;;;13.99;100.00;100717.63;5184101;28;20049;-73
2022/09/24 01:14:31;;;;;;;6.65;3.67;;;13.90;99.90;;;13.96;100.00;100713.22;5165965;28;20429;-70
2022/09/24 01:17:17;;;;;;;5.82;3.03;;;13.80;99.90;;;13.92;100.00;100705.25;5167580;28;20060;-73
2022/09/24 01:20:21;;;;;;;6.07;3.42;;;13.70;99.90;;;13.88;100.00;100703.41;5183831;28;20054;-72
2022/09/24 01:23:12;;;;;;;5.47;2.97;;;13.70;99.90;;;13.83;100.00;100701.59;5185228;28;20052;-73
2022/09/24 01:26:10;;;;;;;5.10;3.25;;;13.70;99.90;;;13.81;100.00;100689.31;5185417;28;20135;-71
2022/09/24 01:29:02;;;;;;;4.82;3.15;;;13.60;99.90;;;13.77;100.00;100693.63;5185109;28;20133;-72
2022/09/24 01:31:45;;;;;;;4.80;2.63;;;13.60;99.90;;;13.74;100.00;100683.06;5167045;28;20046;-72
2022/09/24 01:34:22;;;;;;;4.80;3.13;;;13.60;99.90;;;13.67;100.00;100682.91;5167992;28;20046;-72
2022/09/24 01:36:57;;;;;;;4.07;2.95;;;13.50;99.90;;;13.61;100.00;100682.78;5167373;28;20479;-72
2022/09/24 01:39:31;;;;;;;5.25;2.75;;;13.50;99.90;;;13.58;100.00;100683.63;5185345;28;20055;-71
2022/09/24 01:42:05;;;;;;;5.07;3.03;;;13.50;99.90;;;13.55;100.00;100679.19;5170793;28;20049;-71
2022/09/24 01:44:43;;;;;;;5.25;2.92;;;13.40;99.90;;;13.54;100.00;100681.78;5188699;28;20411;-71
2022/09/24 01:47:24;;;;;;;3.78;2.67;;;13.40;99.90;;;13.52;100.00;100683.47;5187910;28;20042;-72
2022/09/24 01:49:56;;;;;;;4.70;2.45;;;13.40;99.90;;;13.48;100.00;100681.63;5188661;28;20128;-72
2022/09/24 01:52:35;;;;;;;4.85;2.70;;;13.30;99.90;;;13.44;100.00;100685.06;5171089;28;20081;-73
2022/09/24 01:55:12;;;;;;;4.53;2.70;;;13.30;99.90;;;13.39;100.00;100670.97;5188835;28;20556;-73
2022/09/24 01:57:48;;;;;;;5.10;2.85;;;13.30;99.90;;;13.37;100.00;100681.44;5171149;28;20052;-72
2022/09/24 02:00:23;;;;;;;4.60;2.90;;;13.20;99.90;;;13.34;100.00;100683.09;5170597;28;20077;-72
2022/09/24 02:03:07;;;;;;;5.25;3.05;;;13.20;99.90;;;13.32;100.00;100671.69;5186911;28;20414;-70
2022/09/24 02:05:49;;;;;;;4.40;2.83;;;13.10;99.90;;;13.28;100.00;100675.97;5187219;28;20584;-73
2022/09/24 02:08:24;;;;;;;4.53;3.35;;;13.10;99.90;;;13.26;100.00;100675.94;5170838;28;20132;-71
2022/09/24 02:11:04;;;;;;;4.57;2.45;;;13.10;99.90;;;13.23;100.00;100686.34;5186859;28;20494;-72
2022/09/24 02:13:42;;;;;;;4.40;2.80;;;13.10;99.90;;;13.20;100.00;100681.06;5170546;28;20407;-71
2022/09/24 02:16:18;;;;;;;6.47;3.17;;;13.10;99.90;;;13.21;100.00;100682.81;5188173;28;20534;-70
2022/09/24 02:18:57;;;;;;;3.33;2.50;;;13.00;99.90;;;13.20;100.00;100691.53;5188099;28;20069;-71
2022/09/24 02:21:32;;;;;;;4.18;2.50;;;13.00;99.90;;;13.20;100.00;100678.44;5187923;28;20052;-70
2022/09/24 02:24:08;;;;;;;4.15;2.55;;;13.10;99.90;;;13.18;100.00;100677.50;5170138;28;20145;-73
2022/09/24 02:26:42;;;;;;;4.13;3.00;;;13.00;99.90;;;13.15;100.00;100677.41;5187051;28;20046;-73
2022/09/24 02:29:14;;;;;;;5.15;2.78;;;13.00;99.90;;;13.11;100.00;100670.34;5188026;28;20065;-71
2022/09/24 02:31:51;;;;;;;4.95;2.75;;;12.90;99.90;;;13.09;100.00;100668.53;5187979;28;20049;-72
2022/09/24 02:34:31;;;;;;;3.78;2.80;;;12.90;99.90;;;13.06;100.00;100661.50;5188180;28;20054;-71
2022/09/24 02:37:07;;;;;;;4.28;2.90;;;12.90;99.90;;;13.07;100.00;100662.38;5169901;28;20131;-70
2022/09/24 02:39:40;;;;;;;4.72;2.80;;;12.90;99.90;;;13.06;100.00;100671.97;5187037;28;20042;-71
2022/09/24 02:42:14;;;;;;;4.78;2.92;;;12.90;99.90;;;13.02;100.00;100664.88;5186720;28;20056;-70
2022/09/24 02:44:47;;;;;;;4.60;3.00;;;12.90;99.90;;;13.00;100.00;100653.53;5186788;28;20104;-69
2022/09/24 02:47:19;;;;;;;5.35;3.13;;;12.90;99.90;;;12.98;100.00;100647.38;5186639;28;20294;-70
2022/09/24 02:49:53;;;;;;;4.38;2.88;;;12.90;99.90;;;12.97;100.00;100640.34;5186529;28;20042;-70
2022/09/24 02:52:26;;;;;;;4.10;2.58;;;12.90;99.90;;;12.94;100.00;100640.28;5185953;28;20053;-71
2022/09/24 02:54:58;;;;;;;4.97;3.00;;;12.80;99.90;;;12.92;100.00;100642.00;5186698;28;20049;-69
2022/09/24 02:57:31;;;;;;;4.55;2.90;;;12.80;99.90;;;12.89;100.00;100637.56;5186336;28;20050;-70
2022/09/24 03:00:05;;;;;;;4.97;2.70;;;12.80;99.90;;;12.85;100.00;100634.88;5168652;28;20518;-70
2022/09/24 03:02:37;;;;;;;4.50;2.78;;;12.70;99.90;;;12.83;100.00;100641.78;5186434;28;20045;-70
2022/09/24 03:05:11;;;;;;;4.45;2.58;;;12.70;99.90;;;12.79;100.00;100638.22;5186532;28;20124;-70
2022/09/24 03:07:44;;;;;;;4.03;2.38;;;12.70;99.90;;;12.75;100.00;100637.25;5186185;28;20134;-70
2022/09/24 03:10:16;;;;;;;6.70;2.72;;;12.60;99.90;;;12.75;100.00;100645.09;5186060;28;20042;-72
2022/09/24 03:12:48;;;;;;;6.25;3.30;;;12.60;99.90;;;12.76;100.00;100646.84;5186110;28;20060;-70
2022/09/24 03:15:20;;;;;;;3.88;2.50;;;12.60;99.90;;;12.79;100.00;100645.19;5186146;28;20507;-70
2022/09/24 03:17:53;;;;;;;5.97;3.42;;;12.60;99.90;;;12.77;100.00;100638.16;5184704;28;20541;-72
2022/09/24 03:20:27;;;;;;;4.53;2.97;;;12.60;99.90;;;12.76;100.00;100641.63;5186073;28;20084;-70
2022/09/24 03:22:59;;;;;;;6.07;3.35;;;12.60;99.90;;;12.78;100.00;100646.91;5186114;28;20057;-70
2022/09/24 03:25:31;;;;;;;4.38;2.88;;;12.60;99.90;;;12.77;100.00;100645.13;5186430;28;20092;-70
2022/09/24 03:28:03;;;;;;;6.20;3.25;;;12.60;99.90;;;12.76;100.00;100652.09;5185946;28;20057;-70
2022/09/24 03:33:25;;;;;;;4.47;2.83;;;12.60;99.90;;;12.79;100.00;100650.41;5168036;28;20049;-70
2022/09/24 03:36:01;;;;;;;4.30;3.00;;;12.60;99.90;;;12.80;100.00;100652.19;5168187;28;20065;-69
2022/09/24 03:38:34;;;;;;;4.25;2.72;;;12.60;99.90;;;12.81;100.00;100654.81;5167634;28;20049;-72
2022/09/24 03:41:08;;;;;;;5.18;2.95;;;12.60;99.90;;;12.85;100.00;100650.56;5185384;28;20049;-69
2022/09/24 03:43:40;;;;;;;5.40;3.13;;;12.70;99.90;;;12.86;100.00;100652.31;5167766;28;20447;-70
2022/09/24 03:46:14;;;;;;;4.28;3.00;;;12.70;99.90;;;12.89;100.00;100652.38;5184254;28;20046;-69
2022/09/24 03:48:48;;;;;;;5.22;3.13;;;12.70;99.90;;;12.91;100.00;100646.34;5185164;28;20442;-69
2022/09/24 03:51:21;;;;;;;6.07;3.42;;;12.70;99.90;;;12.93;100.00;100646.38;5167861;28;20149;-70
2022/09/24 03:53:54;;;;;;;5.97;3.35;;;12.80;99.90;;;12.95;100.00;100648.16;5185486;28;20046;-71
2022/09/24 03:56:26;;;;;;;6.15;3.53;;;12.80;99.90;;;12.95;100.00;100650.78;5185552;28;20057;-71
2022/09/24 03:58:59;;;;;;;6.28;3.83;;;12.80;99.90;;;12.94;100.00;100646.41;5185027;28;20095;-70
2022/09/24 04:01:34;;;;;;;7.38;3.72;;;12.80;99.90;;;12.90;100.00;100641.06;5185282;28;20072;-70
2022/09/24 04:04:06;;;;;;;6.93;3.78;;;12.80;99.90;;;12.83;100.00;100637.41;5183002;28;20132;-70
2022/09/24 04:06:39;;;;;;;6.18;3.67;;;12.80;99.90;;;12.81;100.00;100635.63;5185038;28;20057;-71
2022/09/24 04:09:12;;;;;;;4.95;3.20;;;12.80;99.90;;;12.80;100.00;100633.88;5184776;28;20048;-68
2022/09/24 04:11:44;;;;;;;5.28;3.30;;;12.70;99.90;;;12.82;100.00;100625.19;5166767;28;20054;-69
2022/09/24 04:14:17;;;;;;;5.60;3.10;;;12.80;99.90;;;12.85;100.00;100627.00;5184707;28;20042;-70
2022/09/24 04:16:49;;;;;;;4.93;3.15;;;12.80;99.90;;;12.86;100.00;100618.31;5184891;28;20046;-71
2022/09/24 04:19:21;;;;;;;5.85;3.47;;;12.70;99.90;;;12.84;100.00;100626.09;5184641;28;20052;-69
2022/09/24 04:21:55;;;;;;;5.80;3.53;;;12.70;99.90;;;12.86;100.00;100623.53;5184737;28;20042;-70
2022/09/24 04:24:27;;;;;;;5.00;3.10;;;12.80;99.90;;;12.86;100.00;100619.19;5167119;28;20056;-70
2022/09/24 04:26:59;;;;;;;4.55;2.83;;;12.70;99.90;;;12.90;100.00;100620.13;5167318;28;20518;-70
2022/09/24 04:29:31;;;;;;;5.30;3.17;;;12.70;99.90;;;12.90;100.00;100612.28;5184846;28;20046;-69
2022/09/24 04:32:03;;;;;;;5.07;3.28;;;12.70;99.90;;;12.91;100.00;100612.34;5185171;28;20071;-69
2022/09/24 04:34:35;;;;;;;6.40;3.42;;;12.80;99.90;;;12.88;100.00;100601.78;5184473;28;20053;-71
2022/09/24 04:37:09;;;;;;;6.55;3.50;;;12.80;99.90;;;12.77;100.00;100604.16;5184898;28;20052;-70
2022/09/24 04:39:41;;;;;;;6.75;3.33;;;12.70;99.90;;;12.68;100.00;100596.09;5166798;28;20387;-70
2022/09/24 04:42:17;;;;;;;5.32;3.53;;;12.70;99.90;;;12.65;100.00;100596.06;5183213;28;20056;-70
2022/09/24 04:44:49;;;;;;;6.15;3.10;;;12.60;99.90;;;12.66;100.00;100591.69;5184260;28;20495;-68
2022/09/24 04:47:24;;;;;;;5.03;2.95;;;12.60;99.90;;;12.70;100.00;100597.03;5166532;28;20049;-70
2022/09/24 04:49:57;;;;;;;;;;;12.60;99.90;;;12.73;100.00;100589.25;5184151;28;20572;-70
2022/09/24 04:52:32;;;;;;;5.00;3.30;;;12.60;99.90;;;12.71;100.00;100590.06;5166227;28;19925;-70
2022/09/24 04:55:05;;;;;;;5.13;3.30;;;12.60;99.90;;;12.69;100.00;100584.78;5183748;28;20077;-69
2022/09/24 04:57:37;;;;;;;6.13;3.15;;;12.60;99.90;;;12.70;100.00;100583.06;5184291;28;20168;-72
2022/09/24 05:00:16;;;;;;;6.70;3.60;;;12.60;99.90;;;12.71;100.00;100587.44;5166681;28;20352;-71
2022/09/24 05:02:56;;;;;;;5.55;3.10;;;12.60;99.90;;;12.73;100.00;100586.66;5183784;28;20108;-69
2022/09/24 05:05:28;;;;;;;6.10;3.50;;;12.60;99.90;;;12.75;100.00;100586.66;5165924;28;20058;-69
2022/09/24 05:08:03;;;;;;;4.95;3.00;;;12.70;99.90;;;12.77;100.00;100587.59;5184405;28;20053;-69
2022/09/24 05:10:36;;;;;;;5.30;3.65;;;12.70;99.90;;;12.81;100.00;100580.69;5183195;28;20514;-70
2022/09/24 05:13:09;;;;;;;5.53;2.97;;;12.70;99.90;;;12.83;100.00;100597.31;5184005;28;20136;-70
2022/09/24 05:15:41;;;;;;;4.72;2.72;;;12.70;99.90;;;12.86;100.00;100594.78;5187298;28;20054;-71
2022/09/24 05:18:13;;;;;;;4.63;2.70;;;12.70;99.90;;;12.86;100.00;100589.53;5187891;28;20046;-72
2022/09/24 05:20:45;;;;;;;5.18;2.80;;;12.70;99.90;;;12.88;100.00;100599.19;5187924;28;20517;-70
2022/09/24 05:23:19;;;;;;;4.25;2.60;;;12.80;99.90;;;12.88;100.00;100587.84;5187651;28;20045;-71
2022/09/24 05:28:41;;;;;;;3.70;2.47;;;12.80;99.90;;;12.89;100.00;100589.59;5169868;28;20107;-73
2022/09/24 05:31:13;;;;;;;6.90;3.10;;;12.80;99.90;;;12.87;100.00;100591.31;5187573;28;20412;-70
2022/09/24 05:33:46;;;;;;;3.63;2.60;;;12.80;99.90;;;12.87;100.00;100605.25;5188128;28;20046;-72
2022/09/24 05:36:18;;;;;;;4.47;3.13;;;12.70;99.90;;;12.89;100.00;100605.28;5186093;28;20073;-70
2022/09/24 05:38:52;;;;;;;4.53;2.85;;;12.70;99.90;;;12.88;100.00;100608.75;5187272;28;20049;-70
2022/09/24 05:41:24;;;;;;;3.80;2.67;;;12.80;99.90;;;12.88;100.00;100609.63;5187098;28;20038;-71
2022/09/24 05:43:58;;;;;;;4.35;2.80;;;12.80;99.90;;;12.89;100.00;100611.41;5187442;28;20076;-72
2022/09/24 05:46:30;;;;;;;4.55;3.10;;;12.70;99.90;;;12.90;100.00;100612.28;5187387;28;20041;-69
2022/09/24 05:49:03;;;;;;;5.47;3.50;;;12.80;99.90;;;12.90;100.00;100607.06;5187145;28;20073;-70
2022/09/24 05:51:35;;;;;;;5.00;2.80;;;12.80;99.90;;;12.88;100.00;100608.75;5187287;28;20041;-69
2022/09/24 05:54:10;;;;;;;3.70;2.65;;;12.70;99.90;;;12.87;100.00;100607.00;5187589;28;20521;-69
2022/09/24 05:56:44;;;;;;;4.47;3.15;;;12.70;99.90;;;12.88;100.00;100609.63;5187332;28;20095;-69
2022/09/24 05:59:17;;;;;;;5.15;3.10;;;12.70;99.90;;;12.90;100.00;100607.06;5185688;28;20053;-69
2022/09/24 06:01:50;;;;;;;4.15;2.42;;;12.80;99.90;;;12.92;100.00;100595.78;5187103;28;20406;-69
2022/09/24 06:04:23;;;;;;;4.07;2.78;;;12.80;99.90;;;12.95;100.00;100606.31;5185720;28;20137;-60
2022/09/24 06:06:55;;;;;;;6.63;3.53;;;12.80;99.90;;;12.95;100.00;100611.53;5186827;28;20056;-59
2022/09/24 06:09:29;;;;;;;4.82;3.10;;;12.80;99.90;;;12.96;100.00;100609.81;5186552;28;20038;-59
2022/09/24 06:12:01;;;;;;;4.22;3.00;;;12.80;99.90;;;12.98;100.00;100627.31;5186609;28;20672;-59
2022/09/24 06:14:34;;;;;;;6.20;3.15;;;12.80;99.90;;;12.98;100.00;100619.47;5214440;22;20045;-88
2022/09/24 06:17:06;;;;;;;7.13;3.08;;;12.80;99.90;;;13.03;100.00;100624.78;5220584;28;20037;-89
2022/09/24 06:19:38;;;;;;;5.60;2.83;;;12.90;99.90;;;13.05;100.00;100623.09;5224012;28;20144;-88
2022/09/24 06:22:10;;;;;;;4.70;2.92;;;12.90;99.90;;;13.06;100.00;100624.88;5209882;28;20049;-88
2022/09/24 06:24:44;;;;;;;4.18;2.92;;;12.90;99.90;;;13.08;100.00;100633.63;5223127;28;20052;-87
2022/09/24 06:27:16;;;;;;;5.00;2.75;;;12.90;99.90;;;13.10;100.00;100621.44;5213390;28;20055;-87
2022/09/24 06:29:48;;;;;;;5.10;3.17;;;13.00;99.90;;;13.10;100.00;100621.44;5213483;28;20086;-88
2022/09/24 06:32:23;;;;;;;5.65;3.20;;;13.00;99.90;;;13.13;100.00;100621.53;5215044;28;20063;-87
2022/09/24 06:34:55;;;;;;;3.88;2.50;;;13.00;99.90;;;13.16;100.00;100625.94;5213292;28;20067;-87
2022/09/24 06:37:27;;;;;;;4.43;2.42;;;13.00;99.90;;;13.19;100.00;100626.03;5213663;28;20066;-88
2022/09/24 06:40:01;;;;;;;6.60;3.10;;;13.00;99.90;;;13.20;100.00;100633.94;5213669;28;20056;-88
2022/09/24 06:42:33;;;;;;;3.92;2.90;;;13.10;99.90;;;13.19;100.00;100631.25;5232332;28;20098;-86
2022/09/24 06:45:07;;;;;;;4.60;2.80;;;13.10;99.90;;;13.19;100.00;100642.59;5232455;28;20045;-86
2022/09/24 06:47:39;;;;;;;4.72;2.40;;;13.00;99.90;;;13.25;100.00;100642.78;5213448;28;20055;-81
2022/09/24 06:50:11;;;;;;;4.85;2.63;;;13.10;99.90;;;13.49;100.00;100641.50;5233444;28;20049;-86
2022/09/24 06:52:43;;;;;;;6.72;2.63;;;13.40;99.90;;;13.68;100.00;100643.63;5215380;28;20090;-85
2022/09/24 06:55:18;;;;;;;5.68;3.03;;;13.60;99.90;;;14.03;100.00;100646.06;5216236;28;20053;-87
2022/09/24 06:57:50;;;;;;;4.95;3.08;;;13.90;99.90;;;14.15;100.00;100650.63;5217377;28;20049;-85
2022/09/24 07:00:22;;;;;;;4.93;3.17;;;14.00;99.90;;;14.07;100.00;100650.50;5234679;28;20048;-90
2022/09/24 07:02:54;;;;;;;7.43;3.20;;;14.00;99.90;;;14.03;100.00;100652.19;5216191;28;20048;-91
2022/09/24 07:05:27;;;;;;;6.47;3.33;;;13.90;99.90;;;14.03;100.00;100646.97;5216714;28;20052;-90
2022/09/24 07:07:59;;;;;;;5.45;3.13;;;13.90;99.90;;;14.02;100.00;100646.94;5218208;28;20053;-90
2022/09/24 07:10:33;;;;;;;5.40;3.03;;;14.00;99.90;;;13.98;100.00;100650.34;5216806;28;20056;-91
2022/09/24 07:13:05;;;;;;;5.95;3.33;;;13.90;99.90;;;13.99;100.00;100645.13;5217738;28;20055;-90
2022/09/24 07:15:37;;;;;;;8.73;3.30;;;13.90;99.90;;;14.00;100.00;100646.00;5216941;28;20041;-91
2022/09/24 07:18:10;;;;;;;5.25;3.08;;;13.90;99.90;;;14.05;100.00;100654.84;5218168;28;20045;-90
2022/09/24 07:20:42;;;;;;;4.93;3.00;;;13.90;99.90;;;14.11;100.00;100660.19;5216704;28;20102;-90
2022/09/24 07:23:15;;;;;;;4.55;2.88;;;13.90;99.90;;;14.13;100.00;100663.72;5217158;28;20088;-92
2022/09/24 07:25:50;;;;;;;5.05;2.95;;;14.00;99.90;;;14.19;100.00;100657.72;5217039;28;20041;-90
2022/09/24 07:28:22;;;;;;;5.50;3.33;;;14.00;99.90;;;14.22;100.00;100648.16;5215168;28;20056;-87
2022/09/24 07:30:59;;;;;;;5.22;3.08;;;14.10;99.90;;;14.20;100.00;100652.47;5233523;28;20494;-86
2022/09/24 07:33:32;;;;;;;6.35;3.05;;;14.00;99.90;;;14.20;100.00;100652.47;5215158;28;20148;-88
2022/09/24 07:36:06;;;;;;;4.38;3.00;;;14.00;99.90;;;14.24;100.00;100649.06;5213873;28;20056;-86
2022/09/24 07:38:38;;;;;;;4.25;3.05;;;14.10;99.90;;;14.29;100.00;100652.66;5213090;28;20388;-87
2022/09/24 07:41:11;;;;;;;4.97;3.03;;;14.10;99.90;;;14.36;100.00;100651.91;5213250;28;20045;-86
2022/09/24 07:43:43;;;;;;;6.07;2.67;;;14.20;99.90;;;14.61;100.00;100654.97;5213405;28;20049;-87
2022/09/24 07:46:15;;;;;;;5.43;2.85;;;14.30;99.90;;;14.84;100.00;100660.56;5212277;28;20485;-88
2022/09/24 07:48:48;;;;;;;4.20;2.75;;;14.50;99.90;;;15.05;100.00;100665.25;5230504;28;20511;-88
2022/09/24 07:51:20;;;;;;;5.50;3.15;;;14.70;99.90;;;15.19;100.00;100658.44;5231170;28;20052;-87
2022/09/24 07:53:52;;;;;;;7.28;3.30;;;14.80;99.90;;;15.18;100.00;100661.94;5212868;28;20060;-87
2022/09/24 07:56:26;;;;;;;4.90;3.25;;;14.90;99.90;;;15.13;100.00;100666.28;5213171;28;20052;-86
2022/09/24 07:58:58;;;;;;;6.22;3.28;;;14.90;99.90;;;15.09;100.00;100667.06;5230142;28;20052;-86
2022/09/24 08:01:31;;;;;;;5.20;2.90;;;14.80;99.90;;;15.10;100.00;100669.72;5212237;28;20045;-86
2022/09/24 08:04:03;;;;;;;6.18;3.28;;;14.80;99.90;;;15.09;100.00;100672.31;5212269;28;20099;-86
2022/09/24 08:06:36;;;;;;;4.70;2.90;;;14.90;99.90;;;15.10;100.00;100671.47;5212019;28;20079;-86
2022/09/24 08:09:08;;;;;;;7.10;3.70;;;14.80;99.90;;;15.08;100.00;100662.69;5195137;28;20120;-88
2022/09/24 08:11:42;;;;;;;5.57;2.88;;;14.90;99.90;;;15.04;100.00;100679.25;5212335;28;20273;-86
2022/09/24 08:14:14;;;;;;;4.40;3.05;;;14.80;99.90;;;15.04;100.00;100666.13;5212696;28;20572;-87
2022/09/24 08:16:46;;;;;;;6.95;3.63;;;14.80;99.90;;;15.07;100.00;100668.81;5230316;28;20521;-87
2022/09/24 08:19:18;;;;;;;4.78;2.75;;;14.80;99.90;;;15.11;100.00;100670.59;5211350;28;20049;-86
2022/09/24 08:21:50;;;;;;;4.20;2.72;;;14.90;99.90;;;15.17;100.00;100668.06;5211262;28;20515;-87
2022/09/24 08:24:22;;;;;;;4.38;3.00;;;14.90;99.90;;;15.22;100.00;100666.38;5211423;28;20049;-86
2022/09/24 08:26:56;;;;;;;5.95;2.80;;;14.90;99.90;;;15.25;100.00;100653.28;5211484;28;20577;-86
2022/09/24 08:29:28;;;;;;;6.22;3.70;;;15.00;99.90;;;15.39;100.00;100664.00;5210702;28;20052;-88
2022/09/24 08:32:00;;;;;;;4.57;2.75;;;15.10;99.90;;;15.43;100.00;100658.78;5211044;28;20112;-88
2022/09/24 08:34:37;;;;;;;4.60;2.80;;;15.10;99.90;;;15.60;100.00;100666.00;5210605;28;20414;-87
2022/09/24 08:37:09;;;;;;;4.30;2.90;;;15.20;99.90;;;15.70;100.00;100668.78;5212883;28;20048;-88
2022/09/24 08:39:43;;;;;;;5.07;2.90;;;15.30;99.90;;;15.89;100.00;100666.38;5232993;28;20533;-87
2022/09/24 08:42:34;;;;;;;4.88;2.30;;;15.60;99.90;;;16.15;100.00;100661.38;5215105;28;20045;-86
2022/09/24 08:48:10;;;;;;;4.65;2.72;;;16.10;99.90;;;16.51;100.00;100672.25;5234039;28;20045;-82
2022/09/24 08:50:51;;;;;;;4.90;2.72;;;16.30;99.90;;;16.62;100.00;100668.81;5215562;28;20076;-87
2022/09/24 08:53:30;;;;;;;5.85;3.22;;;16.40;99.90;;;16.72;100.00;100675.97;5232991;28;20060;-89
2022/09/24 08:56:04;;;;;;;5.55;2.92;;;16.50;99.90;;;16.71;100.00;100675.09;5231240;28;20045;-89
2022/09/24 08:58:45;;;;;;;7.63;3.28;;;16.50;99.90;;;16.63;100.00;100673.25;5213729;28;20422;-89
2022/09/24 09:01:31;;;;;;;6.47;3.13;;;16.40;99.90;;;16.47;100.00;100675.72;5214031;28;20056;-92
2022/09/24 09:04:16;;;;;;;5.78;3.35;;;16.30;99.90;;;16.43;100.00;100673.03;5213579;28;20057;-91
2022/09/24 09:07:00;;;;;;;5.38;3.03;;;16.30;99.90;;;16.43;100.00;100663.44;5213861;28;20056;-89
2022/09/24 09:09:43;;;;;;;5.38;2.95;;;16.20;99.90;;;16.44;100.00;100674.84;5213944;28;20065;-89
2022/09/24 09:12:22;;;;;;;6.78;3.30;;;16.20;99.90;;;16.45;100.00;100674.84;5213570;28;20426;-87
2022/09/24 09:15:02;;;;;;;6.28;3.17;;;16.20;99.90;;;16.47;100.00;100674.84;5213384;28;20049;-89
2022/09/24 09:17:44;;;;;;;4.72;2.95;;;16.20;99.90;;;16.49;100.00;100679.25;5214505;28;20457;-91
2022/09/24 09:20:21;;;;;;;7.28;3.40;;;16.20;99.90;;;16.60;100.00;100683.72;5214888;28;20056;-90
2022/09/24 09:22:53;;;;;;;4.88;2.95;;;16.20;99.90;;;16.77;100.00;100682.16;5212222;28;20056;-90
2022/09/24 09:25:29;;;;;;;5.05;3.22;;;16.30;99.90;;;16.88;100.00;100672.56;5207371;28;20045;-88
2022/09/24 09:28:13;;;;;;;5.65;3.30;;;16.50;99.90;;;17.01;100.00;100674.41;5217140;28;20049;-91
2022/09/24 09:31:03;;;;;;;7.35;3.33;;;16.50;99.90;;;17.21;100.00;100676.28;5229166;28;20061;-87
2022/09/24 09:34:00;;;;;;;7.20;3.65;;;16.70;99.90;;;17.47;100.00;100674.69;5213119;28;20483;-83
2022/09/24 09:36:55;;;;;;;7.00;3.67;;;16.90;99.90;;;17.76;100.00;100681.88;5213560;28;20049;-88
2022/09/24 09:39:41;;;;;;;5.63;3.45;;;17.20;99.90;;;18.02;100.00;100677.56;5212561;28;20443;-88
2022/09/24 09:42:30;;;;;;;6.25;3.63;;;17.50;99.90;;;18.11;100.00;100674.94;5212092;28;20049;-88
2022/09/24 09:45:19;;;;;;;7.35;3.70;;;17.60;99.90;;;18.05;99.88;100679.31;5211602;28;20048;-87
2022/09/24 09:47:56;;;;;;;7.38;3.78;;;17.60;99.90;;;17.95;100.00;100670.53;5211536;28;20056;-88
2022/09/24 09:50:31;;;;;;;5.60;3.22;;;17.50;99.90;;;17.90;100.00;100672.25;5211955;28;20502;-87
2022/09/24 09:53:04;;;;;;;8.05;4.07;;;17.50;99.90;;;17.85;100.00;100676.63;5213039;28;20056;-87
2022/09/24 09:55:37;;;;;;;10.18;4.75;;;17.40;99.90;;;17.83;100.00;100683.66;5212281;28;20490;-87
2022/09/24 09:58:21;;;;;;;9.73;5.18;;;17.40;99.90;;;17.78;100.00;100682.75;5212090;28;20045;-87
2022/09/24 10:01:05;;;;;;;9.13;5.22;;;17.30;99.90;;;17.72;100.00;100693.28;5213794;28;20049;-88
2022/09/24 10:03:49;;;;;;;9.55;5.18;;;17.30;99.90;;;17.63;99.27;100686.19;5215544;28;20063;-86
2022/09/24 10:06:26;;;;;;;11.20;5.00;;;17.20;99.90;;;17.52;99.20;100687.88;5234504;28;20068;-87
2022/09/24 10:09:12;;;;;;;10.88;5.53;;;17.10;99.90;;;17.43;99.59;100688.72;5216914;28;20052;-88
2022/09/24 10:11:45;;;;;;;8.63;4.60;;;17.10;99.90;;;17.38;100.00;100685.19;5215227;28;20045;-88
2022/09/24 10:14:19;;;;;;;8.70;4.75;;;17.00;99.90;;;17.33;100.00;100679.88;5215131;28;20052;-87
2022/09/24 10:16:55;;;;;;;7.95;4.53;;;16.90;99.90;;;17.28;100.00;100684.28;5215770;28;20048;-88
2022/09/24 10:19:29;;;;;;;8.07;4.45;;;16.90;99.90;;;17.20;100.00;100685.06;5216896;28;20049;-91
2022/09/24 10:22:13;;;;;;;10.45;5.32;;;16.80;99.90;;;17.15;100.00;100676.25;5218066;28;20041;-91
2022/09/24 10:24:46;;;;;;;8.85;4.30;;;16.90;99.90;;;17.15;100.00;100684.16;5201535;28;20053;-90
2022/09/24 10:27:32;;;;;;;9.77;4.90;;;16.90;99.90;;;17.16;100.00;100668.38;5218466;28;20052;-89
2022/09/24 10:33:07;;;;;;;9.57;4.53;;;16.80;99.90;;;17.16;100.00;100668.38;5218140;28;20045;-92
2022/09/24 10:35:41;;;;;;;7.95;4.05;;;16.90;99.90;;;17.19;100.00;100657.84;5216242;28;20466;-88
2022/09/24 10:38:19;;;;;;;8.52;4.47;;;16.80;99.90;;;17.24;100.00;100664.03;5217756;28;20069;-91
2022/09/24 10:43:37;;;;;;;7.47;3.60;;;16.90;99.90;;;17.42;100.00;100665.91;5216624;28;20422;-89
2022/09/24 10:46:27;;;;;;;7.35;3.80;;;17.00;99.90;;;17.51;100.00;100673.81;5217759;28;20049;-90
2022/09/24 10:49:15;;;;;;;7.35;3.97;;;17.10;99.90;;;17.57;100.00;100665.94;5216606;28;20049;-90
2022/09/24 10:51:58;;;;;;;11.73;4.80;;;17.20;99.90;;;17.64;100.00;100659.81;5218224;28;20072;-91
2022/09/24 10:54:48;;;;;;;7.97;4.65;;;17.20;99.90;;;17.71;100.00;100662.50;5217344;28;20059;-91
2022/09/24 10:57:29;;;;;;;7.32;4.07;;;17.30;99.90;;;17.74;100.00;100658.16;5234342;28;20045;-91